createdAt,value
2019-03-06T00:01:28.834Z,8.10
2019-03-06T00:05:37.125Z,6.07
2019-03-06T00:09:45.429Z,10.30
2019-03-06T00:13:53.689Z,5.83
2019-03-06T00:18:02.004Z,8.70
2019-03-06T00:22:10.327Z,6.17
2019-03-06T00:26:18.593Z,7.20
2019-03-06T00:30:26.894Z,12.70
2019-03-06T00:34:35.180Z,7.83
2019-03-06T00:38:43.446Z,9.90
2019-03-06T00:42:51.769Z,13.83
2019-03-06T00:47:00.013Z,10.60
2019-03-06T00:51:08.367Z,10.20
2019-03-06T00:55:16.625Z,9.23
2019-03-06T00:59:24.920Z,7.07
2019-03-06T01:03:33.222Z,8.50
2019-03-06T01:07:41.498Z,7.50
2019-03-06T01:11:49.749Z,6.20
2019-03-06T01:15:58.013Z,7.60
2019-03-06T01:20:06.342Z,12.23
2019-03-06T01:24:14.629Z,10.73
2019-03-06T01:28:22.893Z,10.13
2019-03-06T01:32:31.141Z,12.90
2019-03-06T01:36:48.721Z,8.50
2019-03-06T01:41:32.655Z,9.43
2019-03-06T01:45:40.899Z,10.50
2019-03-06T01:49:49.173Z,10.83
2019-03-06T01:53:57.425Z,7.80
2019-03-06T01:58:05.746Z,12.57
2019-03-06T02:02:14.090Z,12.03
2019-03-06T02:06:22.389Z,9.80
2019-03-06T02:10:30.736Z,10.87
2019-03-06T02:14:39.011Z,11.07
2019-03-06T02:18:47.285Z,10.70
2019-03-06T02:22:55.623Z,15.17
2019-03-06T02:27:03.912Z,12.60
2019-03-06T02:31:12.250Z,13.30
2019-03-06T02:35:20.499Z,19.03
2019-03-06T02:39:28.747Z,13.10
2019-03-06T02:43:37.024Z,11.00
2019-03-06T02:47:45.298Z,13.20
2019-03-06T02:51:53.540Z,14.40
2019-03-06T02:56:01.807Z,11.10
2019-03-06T03:00:20.555Z,12.70
2019-03-06T03:04:35.356Z,14.97
2019-03-06T03:08:43.632Z,13.03
2019-03-06T03:12:51.951Z,13.20
2019-03-06T03:17:00.243Z,13.83
2019-03-06T03:21:08.539Z,11.47
2019-03-06T03:25:16.814Z,13.30
2019-03-06T03:29:25.151Z,12.67
2019-03-06T03:33:33.417Z,14.93
2019-03-06T03:37:41.669Z,13.70
2019-03-06T03:41:49.982Z,13.33
2019-03-06T03:45:58.255Z,16.53
2019-03-06T03:50:06.786Z,14.50
2019-03-06T03:54:15.098Z,15.77
2019-03-06T03:58:23.380Z,12.63
2019-03-06T04:02:31.638Z,13.37
2019-03-06T04:06:39.920Z,12.60
2019-03-06T04:10:48.214Z,13.40
2019-03-06T04:14:56.438Z,18.23
2019-03-06T04:19:04.754Z,17.30
2019-03-06T04:23:13.006Z,13.23
2019-03-06T04:27:21.256Z,15.63
2019-03-06T04:31:29.566Z,15.63
2019-03-06T04:35:37.812Z,18.53
2019-03-06T04:39:45.841Z,15.37
2019-03-06T04:43:54.150Z,15.50
2019-03-06T04:48:02.440Z,16.70
2019-03-06T04:52:10.761Z,14.35
2019-03-06T04:56:19.037Z,14.30
2019-03-06T05:00:27.340Z,16.10
2019-03-06T05:04:35.639Z,16.82
2019-03-06T05:08:43.916Z,18.70
2019-03-06T05:12:52.147Z,19.20
2019-03-06T05:17:05.927Z,18.80
2019-03-06T05:21:14.196Z,20.13
2019-03-06T05:25:22.474Z,14.97
2019-03-06T05:29:30.709Z,16.73
2019-03-06T05:33:38.975Z,16.10
2019-03-06T05:37:55.770Z,20.70
2019-03-06T05:42:04.030Z,20.63
2019-03-06T05:46:12.309Z,18.13
2019-03-06T05:50:20.568Z,15.00
2019-03-06T05:54:28.855Z,16.33
2019-03-06T05:58:37.716Z,15.80
2019-03-06T06:02:45.978Z,13.93
2019-03-06T06:06:54.214Z,13.20
2019-03-06T06:11:02.240Z,14.07
2019-03-06T06:15:10.554Z,14.80
2019-03-06T06:19:18.802Z,18.63
2019-03-06T06:23:32.581Z,19.67
2019-03-06T06:27:40.821Z,20.53
2019-03-06T06:31:49.068Z,19.63
2019-03-06T06:35:57.344Z,13.60
2019-03-06T06:40:05.599Z,15.43
2019-03-06T06:44:13.845Z,18.00
2019-03-06T06:48:23.443Z,11.90
2019-03-06T06:52:52.703Z,15.13
2019-03-06T06:57:14.758Z,15.10
2019-03-06T07:01:50.766Z,16.30
2019-03-06T07:06:04.310Z,17.63
2019-03-06T07:10:17.955Z,14.37
2019-03-06T07:14:39.338Z,16.27
2019-03-06T07:18:53.610Z,20.57
2019-03-06T07:23:07.949Z,14.33
2019-03-06T07:28:19.266Z,17.77
2019-03-06T07:32:32.579Z,22.07
2019-03-06T07:36:49.069Z,15.97
2019-03-06T07:41:03.571Z,12.03
2019-03-06T07:45:31.923Z,19.63
2019-03-06T07:49:47.812Z,13.87
2019-03-06T07:56:06.651Z,13.17
2019-03-06T08:00:17.474Z,16.47
2019-03-06T08:04:25.775Z,18.75
2019-03-06T08:08:33.999Z,15.10
2019-03-06T08:13:19.743Z,9.90
2019-03-06T08:17:34.110Z,10.77
2019-03-06T08:21:46.605Z,14.13
2019-03-06T08:25:54.935Z,13.10
2019-03-06T08:30:03.243Z,11.70
2019-03-06T08:34:11.521Z,14.13
2019-03-06T08:38:19.779Z,15.63
2019-03-06T08:42:28.029Z,9.50
2019-03-06T08:46:44.530Z,10.00
2019-03-06T08:51:00.549Z,10.60
2019-03-06T08:55:14.395Z,12.90
2019-03-06T08:59:28.799Z,12.80
2019-03-06T09:04:47.314Z,13.77
2019-03-06T09:09:02.292Z,10.00
2019-03-06T09:13:17.286Z,14.90
2019-03-06T09:17:34.603Z,11.27
2019-03-06T09:21:47.215Z,6.73
2019-03-06T09:26:05.935Z,15.30
2019-03-06T09:30:21.545Z,7.17
2019-03-06T09:34:40.961Z,10.03
2019-03-06T09:38:59.323Z,7.87
2019-03-06T09:43:15.828Z,7.20
2019-03-06T09:47:36.078Z,6.40
2019-03-06T09:51:51.563Z,8.37
2019-03-06T09:56:06.079Z,7.53
2019-03-06T10:00:19.706Z,4.80
2019-03-06T10:04:34.115Z,5.43
2019-03-06T10:08:47.486Z,6.90
2019-03-06T10:13:03.447Z,10.10
2019-03-06T10:17:16.503Z,6.90
2019-03-06T10:21:25.742Z,8.30
2019-03-06T10:25:33.110Z,5.47
2019-03-06T10:29:41.416Z,8.07
2019-03-06T10:33:49.764Z,5.40
2019-03-06T10:37:58.074Z,7.12
2019-03-06T10:42:06.416Z,6.20
2019-03-06T10:46:14.761Z,6.60
2019-03-06T10:50:26.653Z,7.23
2019-03-06T10:54:31.425Z,8.70
2019-03-06T10:58:39.791Z,6.47
2019-03-06T11:02:48.233Z,6.10
2019-03-06T11:06:56.554Z,10.03
2019-03-06T11:11:05.279Z,5.57
2019-03-06T11:15:13.723Z,9.23
2019-03-06T11:19:22.031Z,9.30
2019-03-06T11:23:30.446Z,7.67
2019-03-06T11:27:38.802Z,8.27
2019-03-06T11:31:47.135Z,6.80
2019-03-06T11:35:55.329Z,7.53
2019-03-06T11:40:04.142Z,15.23
2019-03-06T11:44:12.462Z,5.10
2019-03-06T11:48:20.798Z,4.80
2019-03-06T11:52:29.125Z,8.40
2019-03-06T11:56:37.466Z,5.87
2019-03-06T12:00:45.793Z,7.50
2019-03-06T12:04:54.080Z,10.83
2019-03-06T12:09:02.348Z,6.93
2019-03-06T12:13:12.367Z,7.70
2019-03-06T12:17:20.694Z,7.47
2019-03-06T12:21:28.974Z,4.30
2019-03-06T12:25:37.284Z,5.30
2019-03-06T12:29:45.590Z,8.63
2019-03-06T12:33:53.910Z,7.80
2019-03-06T12:38:02.166Z,8.60
2019-03-06T12:42:14.362Z,9.97
2019-03-06T12:46:23.717Z,8.77
2019-03-06T12:50:30.731Z,11.33
2019-03-06T12:54:39.046Z,4.17
2019-03-06T12:58:47.337Z,5.90
2019-03-06T13:02:55.678Z,6.97
2019-03-06T13:07:04.035Z,7.08
2019-03-06T13:11:12.332Z,5.80
2019-03-06T13:15:22.639Z,6.60
2019-03-06T13:19:30.959Z,5.10
2019-03-06T13:23:39.258Z,5.77
2019-03-06T13:27:54.434Z,7.80
2019-03-06T13:31:55.870Z,8.07
2019-03-06T13:36:04.186Z,9.00
2019-03-06T13:40:18.615Z,7.23
2019-03-06T13:44:20.767Z,5.87
2019-03-06T13:48:29.077Z,9.53
2019-03-06T13:52:37.359Z,4.77
2019-03-06T13:56:45.633Z,6.10
2019-03-06T14:00:53.939Z,7.00
2019-03-06T14:05:02.726Z,8.70
2019-03-06T14:09:11.178Z,6.23
2019-03-06T14:13:19.626Z,9.87
2019-03-06T14:17:28.266Z,13.40
2019-03-06T14:21:36.621Z,9.60
2019-03-06T14:25:45.655Z,9.65
2019-03-06T14:29:55.679Z,7.27
2019-03-06T14:34:03.990Z,10.00
2019-03-06T14:43:12.267Z,6.10
2019-03-06T14:47:20.840Z,6.90
2019-03-06T14:51:29.247Z,8.87
2019-03-06T14:55:37.711Z,7.33
2019-03-06T14:59:46.136Z,6.53
2019-03-06T15:03:54.427Z,5.47
2019-03-06T15:08:02.687Z,11.00
2019-03-06T15:12:11.098Z,5.73
2019-03-06T15:16:19.813Z,6.20
2019-03-06T15:20:28.077Z,8.03
2019-03-06T15:24:41.306Z,11.27
2019-03-06T15:28:45.258Z,6.20
2019-03-06T15:32:53.564Z,6.47
2019-03-06T15:37:01.912Z,6.00
2019-03-06T15:41:10.295Z,7.07
2019-03-06T15:45:23.119Z,6.33
2019-03-06T15:49:31.397Z,7.40
2019-03-06T15:53:40.168Z,6.90
2019-03-06T15:57:48.481Z,6.90
2019-03-06T16:01:56.576Z,9.87
2019-03-06T16:06:05.392Z,7.93
2019-03-06T16:10:13.883Z,6.07
2019-03-06T16:14:25.445Z,6.00
2019-03-06T16:18:33.723Z,11.40
2019-03-06T16:22:42.001Z,8.57
2019-03-06T16:26:50.302Z,7.60
2019-03-06T16:30:58.561Z,6.13
2019-03-06T16:35:06.903Z,8.20
2019-03-06T16:39:15.185Z,5.85
2019-03-06T16:43:23.464Z,9.23
2019-03-06T16:47:31.718Z,12.23
2019-03-06T16:51:41.603Z,7.55
2019-03-06T16:55:49.269Z,9.50
2019-03-06T16:59:57.606Z,8.97
2019-03-06T17:04:05.926Z,6.10
2019-03-06T17:08:14.185Z,9.23
2019-03-06T17:12:22.481Z,9.00
2019-03-06T17:16:30.810Z,7.43
2019-03-06T17:20:39.199Z,5.87
2019-03-06T17:24:47.540Z,5.87
2019-03-06T17:28:55.871Z,7.90
2019-03-06T17:33:05.876Z,7.20
2019-03-06T17:37:14.198Z,8.00
2019-03-06T17:41:22.512Z,8.70
2019-03-06T17:45:30.788Z,12.27
2019-03-06T17:49:39.122Z,8.67
2019-03-06T17:53:47.378Z,7.70
2019-03-06T17:57:55.654Z,7.50
2019-03-06T18:02:03.966Z,7.70
2019-03-06T18:06:12.244Z,7.50
2019-03-06T18:10:20.543Z,8.27
2019-03-06T18:14:28.877Z,13.90
2019-03-06T18:18:37.134Z,12.10
2019-03-06T18:22:45.411Z,9.80
2019-03-06T18:26:53.749Z,8.03
2019-03-06T18:31:02.055Z,7.80
2019-03-06T18:35:10.734Z,10.93
2019-03-06T18:39:19.653Z,10.80
2019-03-06T18:43:27.917Z,11.30
2019-03-06T18:47:35.937Z,12.03
2019-03-06T18:51:44.295Z,13.90
2019-03-06T18:55:52.579Z,8.93
2019-03-06T19:00:00.807Z,10.47
2019-03-06T19:04:09.122Z,10.63
2019-03-06T19:08:17.404Z,8.20
2019-03-06T19:12:27.383Z,7.90
2019-03-06T19:16:35.691Z,9.77
2019-03-06T19:20:44.005Z,8.10
2019-03-06T19:24:52.299Z,6.67
2019-03-06T19:29:00.581Z,8.53
2019-03-06T19:33:08.890Z,10.43
2019-03-06T19:37:17.158Z,9.30
2019-03-06T19:41:25.502Z,12.80
2019-03-06T19:45:35.642Z,7.40
2019-03-06T19:49:44.015Z,6.20
2019-03-06T19:53:52.338Z,9.73
2019-03-06T19:58:02.477Z,8.27
2019-03-06T20:02:10.752Z,6.63
2019-03-06T20:06:26.850Z,14.20
2019-03-06T20:10:27.147Z,7.23
2019-03-06T20:14:35.504Z,6.87
2019-03-06T20:18:43.795Z,8.60
2019-03-06T20:22:52.047Z,6.63
2019-03-06T20:27:00.387Z,9.20
2019-03-06T20:31:08.391Z,5.97
2019-03-06T20:35:19.383Z,6.67
2019-03-06T20:39:28.559Z,9.30
2019-03-06T20:43:37.444Z,7.77
2019-03-06T20:47:45.830Z,10.70
2019-03-06T20:51:54.157Z,11.48
2019-03-06T20:56:02.459Z,12.33
2019-03-06T21:00:13.383Z,9.47
2019-03-06T21:04:21.703Z,8.67
2019-03-06T21:08:29.998Z,6.70
2019-03-06T21:12:38.342Z,10.10
2019-03-06T21:16:46.651Z,10.77
2019-03-06T21:20:54.972Z,10.13
2019-03-06T21:25:03.301Z,6.97
2019-03-06T21:29:11.728Z,9.40
2019-03-06T21:33:21.855Z,9.43
2019-03-06T21:37:28.356Z,15.00
2019-03-06T21:41:36.690Z,11.73
2019-03-06T21:45:45.079Z,15.67
2019-03-06T21:49:53.330Z,12.63
2019-03-06T21:54:01.614Z,14.37
2019-03-06T21:58:09.912Z,16.53
2019-03-06T22:02:17.918Z,9.80
2019-03-06T22:06:26.213Z,16.60
2019-03-06T22:10:34.480Z,9.90
2019-03-06T22:14:42.538Z,12.90
2019-03-06T22:18:50.790Z,10.83
2019-03-06T22:22:59.104Z,10.03
2019-03-06T22:27:07.432Z,13.67
2019-03-06T22:31:15.746Z,8.50
2019-03-06T22:35:24.004Z,8.70
2019-03-06T22:39:32.295Z,13.03
2019-03-06T22:43:40.587Z,12.63
2019-03-06T22:47:48.909Z,10.00
2019-03-06T22:51:57.234Z,11.50
2019-03-06T22:56:05.559Z,13.20
2019-03-06T23:00:39.440Z,16.27
2019-03-06T23:04:47.699Z,10.03
2019-03-06T23:08:55.988Z,8.33
2019-03-06T23:13:04.294Z,8.45
2019-03-06T23:17:12.595Z,12.27
2019-03-06T23:21:20.883Z,10.80
2019-03-06T23:25:29.138Z,10.17
2019-03-06T23:29:37.436Z,13.00
2019-03-06T23:33:45.682Z,11.13
2019-03-06T23:37:54.006Z,9.90
2019-03-06T23:42:02.254Z,8.80
2019-03-06T23:46:11.763Z,13.57
2019-03-06T23:50:18.766Z,15.40
2019-03-06T23:54:27.031Z,9.00
2019-03-06T23:58:35.294Z,10.65
